This is the latest recevied weather packets stored in our database for station/object HS6NYW-3. If no packets are shown the sender has not sent any weather packets the latest 1 day(s).
| Time | Temp. | Humidity | Pressure | Rain* | Wind** | Luminosity | Snow |
|---|---|---|---|---|---|---|---|
| 1778072650 | 41.11° C | 38% | 989 hPa | - | - | 0 W/m² | - |
| 1778072026 | 40.56° C | 38% | 989 hPa | - | - | 0 W/m² | - |
| 1778071403 | 41.67° C | 36% | 989 hPa | - | - | 0 W/m² | - |
| 1778070777 | 42.78° C | 35% | 989 hPa | - | - | 0 W/m² | - |
| 1778065160 | 43.89° C | 31% | 988 hPa | - | - | 0 W/m² | - |
| 1778064533 | 43.89° C | 28% | 988 hPa | - | - | 0 W/m² | - |
| 1778063907 | 43.89° C | 28% | 988 hPa | - | - | 0 W/m² | - |
| 1778062656 | 43.89° C | 30% | 988 hPa | - | - | 0 W/m² | - |
| 1778062029 | 43.89° C | 30% | 988 hPa | - | - | 0 W/m² | - |
| 1778060779 | 43.89° C | 30% | 988 hPa | - | - | 0 W/m² | - |
| 1778058900 | 43.33° C | 32% | 988 hPa | - | - | 0 W/m² | - |
| 1778058277 | 43.33° C | 32% | 988 hPa | - | - | 0 W/m² | - |
| 1778057032 | 43.89° C | 31% | 988 hPa | - | - | 0 W/m² | - |
| 1778056408 | 43.33° C | 31% | 988 hPa | - | - | 0 W/m² | - |
| 1778055785 | 43.89° C | 30% | 988 hPa | - | - | 0 W/m² | - |
| 1778053918 | 45° C | 31% | 989 hPa | - | - | 0 W/m² | - |
| 1778053294 | 45° C | 30% | 989 hPa | - | - | 0 W/m² | - |
| 1778052671 | 45° C | 30% | 989 hPa | - | - | 0 W/m² | - |
| 1778052048 | 45.56° C | 29% | 989 hPa | - | - | 0 W/m² | - |
| 1778050180 | 46.11° C | 28% | 989 hPa | - | - | 0 W/m² | - |
| 1778047065 | 45.56° C | 29% | 990 hPa | - | - | 0 W/m² | - |
| 1778045819 | 45° C | 31% | 991 hPa | - | - | 0 W/m² | - |
| 1778045197 | 45.56° C | 30% | 991 hPa | - | - | 0 W/m² | - |
| 1778043327 | 45° C | 32% | 992 hPa | - | - | 0 W/m² | - |
| 1778041458 | 44.44° C | 32% | 992 hPa | - | - | 0 W/m² | - |
* Rain since midnight (hover to see other rain measurements)
** Current wind speed in m/s (hover to see current wind gust speed)